DIRECCIÓN GENERAL DE AERONÁUTICA CIVIL
DIRECCIÓN METEOROLÓGICA DE CHILE
INFORMACIÓN METAR Y TAF

FIR SANTIAGO

Estación: SCSE
METAR SCSE 241900Z 29011KT CAVOK 15/07 Q1019=

TAF SCSE 241630Z 2418/2518 30010KT CAVOK TX16/2418Z TN07/2510Z BECMG 2500/2502 VRB02KT TEMPO 2502/2512 11005KT BKN012 BECMG 2514/2516 30010KT=

Estación: SCER
METAR SCER 161100Z 00000KT 7000 OVC014 12/10 Q1015=

TAF SCER NIL=

Estación: SCRD
METAR SCRD 241900Z 18012KT CAVOK 15/01 Q1022=

TAF SCRD 241038Z 2412/2424 16005KT CAVOK TX18/2418Z TN05/2412Z TEMPO 2412/2414 VRB02KT 2000 BR BKN005 BECMG 2415/2417 18010KT=

Estación: SCVM
METAR SCVM 241900Z 19009KT CAVOK 17/04 Q1022=

TAF SCVM 241630Z 2418/2518 29008KT CAVOK TX17/2419Z TN07/2510Z BECMG 2500/2502 15005KT BECMG 2506/2508 VRB02KT TEMPO 2506/2510 SCT030 BECMG 2514/2516 29010KT=

Estación: SCTB
METAR SCTB 241900Z 27004KT CAVOK 14/M04 Q1023=

TAF SCTB 241039Z 2412/2424 25004KT 6000 SKC TX15/2418Z TN03/2412Z BECMG 2415/2417 16004KT CAVOK BECMG 2419/2421 4000 HZ SKC=

Estación: SCEL
METAR SCEL 241900Z 17004KT 100V250 CAVOK 13/M03 Q1023 NOSIG=

TAF SCEL 241630Z 2418/2518 19005KT 7000 NSC TX16/2419Z TN02/2511Z BECMG 2418/2420 19010KT CAVOK BECMG 2500/2502 16005KT TEMPO 2503/2510 8000 SCT150 BECMG 2506/2508 VRB02KT 5000 HZ TEMPO 2508/2512 0800 BCFG BECMG 2512/2514 17005KT BECMG 2514/2516 19012KT=

Estación: SCSN
METAR SCSN 241800Z 17008KT CAVOK 14/04 Q1025=

TAF SCSN 241038Z 2412/2424 VRB02KT CAVOK TX14/2418Z TN05/2412Z TEMPO 2412/2414 15005KT 5000 BR BECMG 2414/2416 21010KT=

Estación: SCRG
METAR SCRG 241900Z 15008KT 6000 SKC 10/01 Q1023=

TAF SCRG 241039Z 2412/2424 16005KT CAVOK TX15/2418Z TN03/2412Z TEMPO 2412/2415 3000 HZ SKC BECMG 2415/2417 16010KT SCT030=

Estación: SCIC
METAR SCIC 241900Z 22005KT CAVOK 08/02 Q1025=

TAF SCIC 241040Z 2412/2424 19007KT 0500 BKN003 TX12/2419Z TN00/2412Z TEMPO 2412/2416 12005KT 4000 BR SCT007 BECMG 2415/2417 CAVOK=

Estación: SCCH
METAR SCCH 241900Z 21009KT 9999 SCT100 11/03 Q1026=

TAF SCCH 241040Z 2412/2424 19005KT CAVOK TX13/2418Z TN00/2412Z TEMPO 2412/2414 VRB02KT 4000 BR BECMG 2416/2418 18010KT BECMG 2418/2420 36011KT SCT030 BKN120=

Estación: SCIE
METAR SCIE 241900Z 21009KT 190V250 9999 FEW020 BKN100 12/04 Q1026=

TAF SCIE 241630Z 2418/2518 15005KT 9999 SCT020 TX12/2418Z TN06/2510Z BECMG 2418/2420 35010KT BKN025 BECMG 2500/2502 01008KT BKN020 BKN050 TEMPO 2509/2512 02015KT 8000 -SHRA BKN015 BKN030 BECMG 2516/2518 23010KT SCT030=

Estación: SCGE
METAR SCGE 241900Z 18012KT 9999 FEW025 SCT080 12/03 Q1026=

TAF SCGE 241041Z 2412/2424 18010KT CAVOK TX10/2418Z TN01/2412Z TEMPO 2412/2416 15004KT SCT030 SCT180 BECMG 2417/2419 36012KT BKN025 BKN150 =


Volver